createdAt,value
2019-04-06T00:02:37.763Z,70.84
2019-04-06T00:05:08.316Z,70.96
2019-04-06T00:07:40.011Z,70.77
2019-04-06T00:10:08.872Z,70.62
2019-04-06T00:12:37.658Z,70.55
2019-04-06T00:15:07.753Z,70.55
2019-04-06T00:17:36.568Z,70.31
2019-04-06T00:20:06.730Z,70.17
2019-04-06T00:22:35.454Z,70.16
2019-04-06T00:25:05.348Z,70.30
2019-04-06T00:27:34.616Z,70.36
2019-04-06T00:30:03.455Z,70.37
2019-04-06T00:32:33.857Z,70.49
2019-04-06T00:35:05.404Z,70.57
2019-04-06T00:37:34.152Z,70.63
2019-04-06T00:40:02.869Z,70.80
2019-04-06T00:42:31.807Z,71.08
2019-04-06T00:45:00.514Z,71.16
2019-04-06T00:47:29.319Z,71.21
2019-04-06T00:49:58.020Z,71.23
2019-04-06T00:52:26.756Z,71.33
2019-04-06T00:54:55.982Z,71.35
2019-04-06T00:57:24.835Z,71.44
2019-04-06T00:59:53.590Z,71.39
2019-04-06T01:02:22.566Z,72.24
2019-04-06T01:04:52.988Z,72.25
2019-04-06T01:07:23.161Z,71.45
2019-04-06T01:09:52.804Z,70.91
2019-04-06T01:12:23.145Z,70.54
2019-04-06T01:14:51.972Z,70.12
2019-04-06T01:17:23.812Z,69.91
2019-04-06T01:19:52.724Z,69.83
2019-04-06T01:22:23.104Z,70.01
2019-04-06T01:24:51.935Z,70.29
2019-04-06T01:27:22.329Z,70.41
2019-04-06T01:29:51.147Z,70.67
2019-04-06T01:32:19.934Z,70.76
2019-04-06T01:34:48.669Z,70.77
2019-04-06T01:37:17.447Z,71.03
2019-04-06T01:39:46.187Z,71.41
2019-04-06T01:42:17.823Z,71.48
2019-04-06T01:44:46.553Z,71.47
2019-04-06T01:47:15.266Z,71.74
2019-04-06T01:49:45.464Z,71.96
2019-04-06T01:52:14.198Z,72.17
2019-04-06T01:54:43.016Z,72.21
2019-04-06T01:57:11.794Z,72.18
2019-04-06T01:59:40.574Z,72.29
2019-04-06T02:02:14.102Z,72.18
2019-04-06T02:04:42.897Z,72.14
2019-04-06T02:07:11.631Z,72.26
2019-04-06T02:09:40.404Z,72.51
2019-04-06T02:12:09.562Z,72.50
2019-04-06T02:14:38.600Z,71.74
2019-04-06T02:17:07.350Z,71.21
2019-04-06T02:19:39.646Z,70.97
2019-04-06T02:22:08.322Z,71.06
2019-04-06T02:24:38.683Z,71.01
2019-04-06T02:27:09.053Z,71.06
2019-04-06T02:29:37.957Z,71.01
2019-04-06T02:32:25.069Z,70.92
2019-04-06T02:35:11.641Z,70.88
2019-04-06T02:37:47.780Z,70.83
2019-04-06T02:40:28.364Z,70.84
2019-04-06T02:42:58.740Z,70.97
2019-04-06T02:45:27.505Z,70.95
2019-04-06T02:47:56.332Z,70.97
2019-04-06T02:50:25.122Z,70.80
2019-04-06T02:52:53.982Z,70.81
2019-04-06T02:55:22.759Z,71.00
2019-04-06T02:57:51.450Z,71.10
2019-04-06T03:00:24.131Z,71.24
2019-04-06T03:02:54.660Z,71.39
2019-04-06T03:05:23.436Z,71.47
2019-04-06T03:07:52.202Z,71.37
2019-04-06T03:10:21.283Z,71.56
2019-04-06T03:12:50.045Z,71.41
2019-04-06T03:15:18.849Z,71.25
2019-04-06T03:17:47.607Z,71.09
2019-04-06T03:20:16.353Z,70.95
2019-04-06T03:22:45.062Z,70.79
2019-04-06T03:25:13.978Z,70.66
2019-04-06T03:27:42.759Z,70.57
2019-04-06T03:30:12.009Z,70.41
2019-04-06T03:32:40.768Z,70.29
2019-04-06T03:35:10.060Z,70.45
2019-04-06T03:37:38.783Z,70.63
2019-04-06T03:40:07.810Z,70.71
2019-04-06T03:42:36.734Z,70.83
2019-04-06T03:45:07.940Z,71.04
2019-04-06T03:47:36.682Z,71.18
2019-04-06T03:50:09.796Z,71.10
2019-04-06T03:52:38.570Z,70.93
2019-04-06T03:55:09.773Z,71.04
2019-04-06T03:57:38.673Z,71.02
2019-04-06T04:00:07.901Z,71.08
2019-04-06T04:02:39.314Z,71.13
2019-04-06T04:05:08.617Z,71.28
2019-04-06T04:07:37.255Z,71.41
2019-04-06T04:10:07.639Z,71.39
2019-04-06T04:12:36.309Z,71.45
2019-04-06T04:15:06.479Z,71.57
2019-04-06T04:17:35.257Z,71.86
2019-04-06T04:20:07.763Z,71.82
2019-04-06T04:22:39.018Z,71.92
2019-04-06T04:25:07.729Z,72.23
2019-04-06T04:27:38.059Z,72.43
2019-04-06T04:30:08.433Z,72.61
2019-04-06T04:32:37.094Z,72.74
2019-04-06T04:35:08.590Z,73.08
2019-04-06T04:37:37.481Z,73.25
2019-04-06T04:40:08.486Z,73.21
2019-04-06T04:42:37.193Z,73.41
2019-04-06T04:45:06.542Z,73.29
2019-04-06T04:47:35.216Z,73.32
2019-04-06T04:50:03.871Z,73.34
2019-04-06T04:52:35.777Z,73.31
2019-04-06T04:55:06.199Z,73.26
2019-04-06T04:57:40.900Z,73.19
2019-04-06T05:00:06.401Z,73.48
2019-04-06T05:02:35.116Z,73.75
2019-04-06T05:05:04.573Z,73.66
2019-04-06T05:07:33.333Z,73.71
2019-04-06T05:10:02.022Z,73.80
2019-04-06T05:12:30.773Z,73.86
2019-04-06T05:15:02.409Z,73.69
2019-04-06T05:17:31.465Z,73.58
2019-04-06T05:20:00.481Z,73.34
2019-04-06T05:22:29.201Z,72.95
2019-04-06T05:24:58.036Z,72.72
2019-04-06T05:27:27.141Z,72.44
2019-04-06T05:29:59.183Z,72.37
2019-04-06T05:32:29.819Z,72.41
2019-04-06T05:34:58.682Z,72.45
2019-04-06T05:37:28.850Z,72.58
2019-04-06T05:39:57.521Z,73.08
2019-04-06T05:42:26.249Z,73.53
2019-04-06T05:44:55.011Z,74.08
2019-04-06T05:47:25.359Z,74.71
2019-04-06T05:49:54.679Z,75.15
2019-04-06T05:52:23.904Z,75.95
2019-04-06T05:54:52.847Z,76.88
2019-04-06T05:57:24.678Z,77.00
2019-04-06T05:59:53.519Z,78.36
2019-04-06T06:02:22.504Z,78.42
2019-04-06T06:04:51.234Z,79.93
2019-04-06T06:07:22.490Z,80.53
2019-04-06T06:09:51.915Z,80.96
2019-04-06T06:12:20.637Z,80.64
2019-04-06T06:14:50.946Z,80.86
2019-04-06T06:17:19.962Z,81.09
2019-04-06T06:19:50.532Z,81.55
2019-04-06T06:22:19.302Z,81.40
2019-04-06T06:24:48.398Z,81.31
2019-04-06T06:27:17.221Z,81.48
2019-04-06T06:29:47.377Z,81.37
2019-04-06T06:32:16.164Z,81.27
2019-04-06T06:34:48.383Z,81.16
2019-04-06T06:37:17.217Z,81.16
2019-04-06T06:39:45.910Z,81.02
2019-04-06T06:42:14.684Z,80.79
2019-04-06T06:44:43.369Z,80.66
2019-04-06T06:47:13.117Z,80.31
2019-04-06T06:49:41.791Z,80.07
2019-04-06T06:52:10.514Z,79.77
2019-04-06T06:54:39.260Z,79.45
2019-04-06T06:57:09.987Z,79.26
2019-04-06T06:59:38.880Z,78.72
2019-04-06T07:02:07.673Z,78.01
2019-04-06T07:04:36.400Z,77.14
2019-04-06T07:07:05.180Z,77.21
2019-04-06T07:09:36.984Z,77.44
2019-04-06T07:12:05.731Z,77.49
2019-04-06T07:14:37.172Z,77.43
2019-04-06T07:17:05.942Z,77.11
2019-04-06T07:19:34.648Z,77.19
2019-04-06T07:22:06.162Z,76.09
2019-04-06T07:24:34.877Z,76.66
2019-04-06T07:27:03.552Z,76.27
2019-04-06T07:29:33.912Z,76.35
2019-04-06T07:32:03.296Z,75.80
2019-04-06T07:34:32.066Z,74.18
2019-04-06T07:37:01.214Z,73.85
2019-04-06T07:39:29.892Z,71.90
2019-04-06T07:41:58.596Z,71.98
2019-04-06T07:44:27.258Z,71.43
2019-04-06T07:46:56.160Z,72.23
2019-04-06T07:49:24.813Z,71.84
2019-04-06T07:51:53.511Z,71.96
2019-04-06T07:54:22.184Z,71.30
2019-04-06T07:56:50.893Z,70.46
2019-04-06T07:59:19.576Z,70.53
2019-04-06T08:01:48.976Z,69.49
2019-04-06T08:04:17.754Z,68.66
2019-04-06T08:06:46.550Z,69.95
2019-04-06T08:09:15.214Z,70.58
2019-04-06T08:11:43.956Z,70.71
2019-04-06T08:14:14.188Z,70.66
2019-04-06T08:16:42.916Z,69.04
2019-04-06T08:19:11.647Z,69.28
2019-04-06T08:21:40.570Z,69.45
2019-04-06T08:24:09.344Z,69.16
2019-04-06T08:26:38.096Z,69.16
2019-04-06T08:29:06.810Z,69.21
2019-04-06T08:31:38.491Z,69.13
2019-04-06T08:34:07.216Z,69.05
2019-04-06T08:36:38.574Z,68.89
2019-04-06T08:39:09.600Z,68.75
2019-04-06T08:41:38.290Z,68.25
2019-04-06T08:44:09.921Z,68.30
2019-04-06T08:46:38.591Z,67.73
2019-04-06T08:49:07.400Z,66.48
2019-04-06T08:51:36.142Z,66.30
2019-04-06T08:54:04.924Z,66.41
2019-04-06T08:56:35.392Z,66.48
2019-04-06T08:59:11.251Z,66.42
2019-04-06T09:01:34.531Z,66.07
2019-04-06T09:04:03.337Z,65.36
2019-04-06T09:06:31.998Z,62.69
2019-04-06T09:09:05.155Z,59.13
2019-04-06T09:11:33.927Z,57.61
2019-04-06T09:14:02.777Z,55.56
2019-04-06T09:16:31.657Z,50.62
2019-04-06T09:19:00.514Z,49.33
2019-04-06T09:21:29.500Z,47.75
2019-04-06T09:23:58.910Z,44.87
2019-04-06T09:26:28.061Z,43.48
2019-04-06T09:28:59.397Z,44.94
2019-04-06T09:31:27.362Z,42.46
2019-04-06T09:33:56.025Z,42.36
2019-04-06T09:36:24.801Z,40.57
2019-04-06T09:38:53.549Z,41.02
2019-04-06T09:41:22.313Z,39.56
2019-04-06T09:43:50.976Z,38.96
2019-04-06T09:46:29.621Z,38.36
2019-04-06T09:49:08.334Z,35.80
2019-04-06T09:51:56.838Z,35.64
2019-04-06T09:54:36.591Z,37.01
2019-04-06T09:57:06.916Z,34.91
2019-04-06T09:59:52.513Z,36.08
2019-04-06T10:02:25.809Z,34.90
2019-04-06T10:05:11.720Z,33.26
2019-04-06T10:07:54.359Z,34.29
2019-04-06T10:10:37.085Z,34.61
2019-04-06T10:13:25.592Z,35.62
2019-04-06T10:15:59.146Z,35.42
2019-04-06T10:18:45.796Z,37.69
2019-04-06T10:21:16.347Z,36.82
2019-04-06T10:23:46.780Z,37.38
2019-04-06T10:26:17.083Z,38.73
2019-04-06T10:28:50.170Z,39.66
2019-04-06T10:31:24.997Z,40.50
2019-04-06T10:34:04.329Z,41.88
2019-04-06T10:36:50.849Z,41.12
2019-04-06T10:39:21.200Z,42.81
2019-04-06T10:41:57.479Z,40.83
2019-04-06T10:44:30.692Z,41.82
2019-04-06T10:47:04.036Z,42.32
2019-04-06T10:49:50.590Z,43.85
2019-04-06T10:52:23.287Z,44.65
2019-04-06T10:55:11.841Z,43.73
2019-04-06T10:58:00.776Z,43.10
2019-04-06T11:00:46.659Z,44.64
2019-04-06T11:03:29.021Z,45.94
2019-04-06T11:05:59.367Z,46.67
2019-04-06T11:08:38.700Z,46.29
2019-04-06T11:11:24.114Z,46.57
2019-04-06T11:14:10.857Z,47.35
2019-04-06T11:16:50.440Z,45.70
2019-04-06T11:19:26.831Z,47.20
2019-04-06T11:22:06.980Z,45.33
2019-04-06T11:24:37.296Z,45.39
2019-04-06T11:27:07.660Z,46.99
2019-04-06T11:29:37.971Z,46.90
2019-04-06T11:32:17.532Z,47.68
2019-04-06T11:35:04.102Z,47.65
2019-04-06T11:37:51.053Z,47.80
2019-04-06T11:40:30.442Z,47.10
2019-04-06T11:43:00.826Z,47.11
2019-04-06T11:45:31.367Z,46.44
2019-04-06T11:48:01.685Z,46.46
2019-04-06T11:50:39.189Z,44.82
2019-04-06T11:53:10.059Z,46.88
2019-04-06T11:55:46.628Z,46.85
2019-04-06T11:58:23.546Z,45.98
2019-04-06T12:01:09.270Z,47.09
2019-04-06T12:03:54.976Z,46.29
2019-04-06T12:06:28.327Z,45.20
2019-04-06T12:09:02.870Z,45.53
2019-04-06T12:11:48.305Z,45.98
2019-04-06T12:14:21.924Z,46.55
2019-04-06T12:17:04.182Z,45.73
2019-04-06T12:19:52.526Z,44.96
2019-04-06T12:22:25.943Z,45.22
2019-04-06T12:25:13.344Z,43.96
2019-04-06T12:27:58.682Z,44.25
2019-04-06T12:30:45.126Z,44.54
2019-04-06T12:33:27.521Z,44.41
2019-04-06T12:36:13.088Z,45.74
2019-04-06T12:38:55.714Z,42.74
2019-04-06T12:41:42.673Z,40.73
2019-04-06T12:44:22.276Z,41.85
2019-04-06T12:46:58.800Z,43.15
2019-04-06T12:49:47.273Z,40.98
2019-04-06T12:52:18.228Z,36.52
2019-04-06T12:55:04.835Z,37.08
2019-04-06T12:57:37.931Z,37.68
2019-04-06T13:00:21.759Z,35.62
2019-04-06T13:02:52.089Z,37.63
2019-04-06T13:08:18.871Z,36.90
2019-04-06T13:10:52.147Z,37.38
2019-04-06T13:13:31.893Z,35.47
2019-04-06T13:16:11.272Z,36.20
2019-04-06T13:18:57.694Z,38.48
2019-04-06T13:21:31.017Z,38.30
2019-04-06T13:26:50.729Z,38.11
2019-04-06T13:29:23.751Z,34.97
2019-04-06T13:31:57.348Z,34.06
2019-04-06T13:34:36.858Z,35.52
2019-04-06T13:37:16.067Z,34.39
2019-04-06T13:39:52.174Z,33.97
2019-04-06T13:42:25.629Z,35.48
2019-04-06T13:47:48.071Z,36.11
2019-04-06T13:50:21.203Z,36.00
2019-04-06T13:52:51.574Z,34.80
2019-04-06T13:55:40.232Z,34.18
2019-04-06T13:58:13.101Z,34.13
2019-04-06T14:00:43.539Z,35.25
2019-04-06T14:03:18.444Z,33.21
2019-04-06T14:06:05.211Z,34.14
2019-04-06T14:08:50.830Z,34.50
2019-04-06T14:11:24.356Z,34.47
2019-04-06T14:14:02.250Z,34.80
2019-04-06T14:16:51.210Z,34.46
2019-04-06T14:19:37.552Z,33.78
2019-04-06T14:22:24.388Z,34.71
2019-04-06T14:25:12.926Z,35.22
2019-04-06T14:27:43.411Z,32.96
2019-04-06T14:30:13.878Z,33.24
2019-04-06T14:32:50.072Z,33.29
2019-04-06T14:35:20.896Z,34.45
2019-04-06T14:38:07.148Z,33.51
2019-04-06T14:40:46.536Z,31.81
2019-04-06T14:43:33.341Z,32.25
2019-04-06T14:46:07.921Z,32.64
2019-04-06T14:48:38.262Z,32.80
2019-04-06T14:51:12.018Z,32.40
2019-04-06T14:53:51.425Z,31.63
2019-04-06T14:56:24.652Z,31.39
2019-04-06T14:58:55.011Z,32.04
2019-04-06T15:01:40.191Z,32.63
2019-04-06T15:04:08.255Z,32.49
2019-04-06T15:06:45.128Z,32.29
2019-04-06T15:09:26.887Z,31.67
2019-04-06T15:12:00.218Z,31.90
2019-04-06T15:14:45.902Z,32.86
2019-04-06T15:17:22.223Z,32.85
2019-04-06T15:19:54.031Z,32.58
2019-04-06T15:22:39.614Z,32.88
2019-04-06T15:25:28.429Z,33.06
2019-04-06T15:28:19.829Z,36.45
2019-04-06T15:30:59.235Z,39.41
2019-04-06T15:33:32.633Z,40.85
2019-04-06T15:36:05.876Z,41.60
2019-04-06T15:38:36.636Z,41.42
2019-04-06T15:41:12.143Z,42.09
2019-04-06T15:43:54.688Z,42.49
2019-04-06T15:46:30.109Z,43.05
2019-04-06T15:49:06.314Z,43.31
2019-04-06T15:51:45.368Z,43.74
2019-04-06T15:57:09.805Z,44.19
2019-04-06T15:59:46.647Z,44.28
2019-04-06T16:02:23.131Z,44.48
2019-04-06T16:05:05.522Z,44.74
2019-04-06T16:07:52.631Z,44.76
2019-04-06T16:10:25.763Z,45.22
2019-04-06T16:12:59.371Z,45.74
2019-04-06T16:15:35.885Z,45.83
2019-04-06T16:18:12.249Z,46.14
2019-04-06T16:20:42.628Z,46.14
2019-04-06T16:23:13.294Z,46.32
2019-04-06T16:25:59.382Z,46.54
2019-04-06T16:28:45.478Z,46.43
2019-04-06T16:31:35.359Z,46.31
2019-04-06T16:34:17.748Z,46.16
2019-04-06T16:37:04.575Z,46.24
2019-04-06T16:39:43.860Z,46.56
2019-04-06T16:42:20.189Z,46.49
2019-04-06T16:44:52.140Z,46.71
2019-04-06T16:47:25.433Z,46.72
2019-04-06T16:50:03.835Z,47.11
2019-04-06T16:52:34.194Z,47.16
2019-04-06T16:55:04.504Z,47.22
2019-04-06T16:57:51.400Z,47.42
2019-04-06T17:00:21.744Z,47.68
2019-04-06T17:03:06.420Z,48.29
2019-04-06T17:05:36.185Z,48.39
2019-04-06T17:08:13.542Z,48.57
2019-04-06T17:10:47.761Z,48.67
2019-04-06T17:13:18.150Z,48.70
2019-04-06T17:15:53.829Z,48.91
2019-04-06T17:18:38.978Z,49.10
2019-04-06T17:21:13.007Z,49.40
2019-04-06T17:23:52.752Z,50.61
2019-04-06T17:26:33.193Z,50.15
2019-04-06T17:29:19.756Z,50.21
2019-04-06T17:31:50.675Z,50.89
2019-04-06T17:34:37.205Z,50.96
2019-04-06T17:37:17.000Z,51.25
2019-04-06T17:39:48.672Z,51.39
2019-04-06T17:42:25.200Z,51.45
2019-04-06T17:45:13.932Z,52.01
2019-04-06T17:47:50.205Z,52.24
2019-04-06T17:50:20.794Z,51.82
2019-04-06T17:53:05.732Z,51.83
2019-04-06T17:55:39.099Z,51.84
2019-04-06T17:58:12.913Z,51.88
2019-04-06T18:01:01.671Z,51.89
2019-04-06T18:03:37.685Z,51.79
2019-04-06T18:06:23.171Z,51.87
2019-04-06T18:08:59.472Z,52.08
2019-04-06T18:11:29.826Z,52.18
2019-04-06T18:13:58.619Z,52.23
2019-04-06T18:16:28.955Z,52.36
2019-04-06T18:18:57.737Z,52.47
2019-04-06T18:21:26.481Z,52.44
2019-04-06T18:23:55.308Z,52.56
2019-04-06T18:26:27.118Z,52.61
2019-04-06T18:28:56.205Z,52.84
2019-04-06T18:31:26.607Z,53.01
2019-04-06T18:33:55.768Z,53.28
2019-04-06T18:36:26.600Z,53.32
2019-04-06T18:39:02.975Z,53.40
2019-04-06T18:41:35.817Z,53.42
2019-04-06T18:44:04.531Z,53.62
2019-04-06T18:46:33.265Z,53.76
2019-04-06T18:49:02.171Z,54.41
2019-04-06T18:51:30.934Z,54.52
2019-04-06T18:53:59.693Z,54.52
2019-04-06T18:56:29.194Z,54.73
2019-04-06T18:59:00.504Z,54.82
2019-04-06T19:01:29.314Z,54.99
2019-04-06T19:03:58.062Z,55.22
2019-04-06T19:06:27.256Z,55.25
2019-04-06T19:08:56.067Z,55.38
2019-04-06T19:11:25.752Z,55.42
2019-04-06T19:13:54.780Z,55.51
2019-04-06T19:16:23.619Z,55.58
2019-04-06T19:18:52.335Z,55.49
2019-04-06T19:21:21.104Z,55.77
2019-04-06T19:23:49.869Z,56.11
2019-04-06T19:26:18.810Z,56.25
2019-04-06T19:28:47.602Z,56.20
2019-04-06T19:31:16.915Z,56.61
2019-04-06T19:33:45.750Z,56.63
2019-04-06T19:36:14.733Z,56.52
2019-04-06T19:38:43.839Z,56.74
2019-04-06T19:41:12.647Z,56.92
2019-04-06T19:43:41.407Z,56.89
2019-04-06T19:46:25.171Z,57.04
2019-04-06T19:48:58.557Z,57.00
2019-04-06T19:51:29.101Z,56.96
2019-04-06T19:54:00.431Z,57.02
2019-04-06T19:56:29.132Z,56.87
2019-04-06T19:58:57.906Z,57.11
2019-04-06T20:01:26.599Z,56.96
2019-04-06T20:03:55.467Z,56.94
2019-04-06T20:06:24.199Z,57.13
2019-04-06T20:08:52.956Z,57.29
2019-04-06T20:11:22.033Z,57.38
2019-04-06T20:13:50.855Z,57.33
2019-04-06T20:16:20.137Z,57.60
2019-04-06T20:18:49.004Z,57.55
2019-04-06T20:21:17.665Z,57.56
2019-04-06T20:23:46.465Z,57.50
2019-04-06T20:26:15.229Z,57.59
2019-04-06T20:28:44.469Z,57.77
2019-04-06T20:31:13.360Z,57.77
2019-04-06T20:33:50.304Z,58.01
2019-04-06T20:36:13.068Z,58.28
2019-04-06T20:38:42.356Z,58.43
2019-04-06T20:41:11.160Z,58.45
2019-04-06T20:43:39.926Z,58.55
2019-04-06T20:46:08.704Z,58.70
2019-04-06T20:48:38.435Z,58.80
2019-04-06T20:51:07.366Z,59.02
2019-04-06T20:53:36.426Z,59.47
2019-04-06T20:56:05.416Z,59.92
2019-04-06T20:58:34.082Z,60.38
2019-04-06T21:01:02.856Z,60.44
2019-04-06T21:03:31.611Z,60.59
2019-04-06T21:06:00.429Z,60.58
2019-04-06T21:08:29.665Z,61.02
2019-04-06T21:10:58.917Z,61.34
2019-04-06T21:13:27.860Z,61.56
2019-04-06T21:15:56.674Z,61.66
2019-04-06T21:18:25.948Z,61.72
2019-04-06T21:20:57.530Z,61.88
2019-04-06T21:23:26.340Z,62.72
2019-04-06T21:25:55.660Z,62.56
2019-04-06T21:28:24.540Z,62.48
2019-04-06T21:30:53.428Z,62.27
2019-04-06T21:33:22.253Z,62.65
2019-04-06T21:35:51.023Z,62.72
2019-04-06T21:38:19.826Z,62.73
2019-04-06T21:40:48.996Z,62.70
2019-04-06T21:43:18.092Z,62.88
2019-04-06T21:45:46.874Z,62.66
2019-04-06T21:48:16.116Z,62.79
2019-04-06T21:50:45.229Z,62.95
2019-04-06T21:53:14.127Z,62.93
2019-04-06T21:55:43.488Z,62.65
2019-04-06T21:58:14.565Z,62.92
2019-04-06T22:00:45.651Z,62.64
2019-04-06T22:03:14.461Z,62.86
2019-04-06T22:05:43.201Z,62.83
2019-04-06T22:08:19.437Z,62.88
2019-04-06T22:10:48.108Z,62.87
2019-04-06T22:13:16.800Z,63.01
2019-04-06T22:15:46.142Z,63.00
2019-04-06T22:18:14.965Z,62.93
2019-04-06T22:20:43.878Z,62.85
2019-04-06T22:23:13.099Z,62.82
2019-04-06T22:25:41.965Z,62.83
2019-04-06T22:28:10.939Z,62.77
2019-04-06T22:30:40.707Z,62.82
2019-04-06T22:33:09.454Z,62.73
2019-04-06T22:35:38.400Z,62.64
2019-04-06T22:38:08.084Z,62.68
2019-04-06T22:40:37.066Z,62.88
2019-04-06T22:43:05.873Z,62.86
2019-04-06T22:45:35.136Z,62.92
2019-04-06T22:48:07.304Z,62.94
2019-04-06T22:50:36.538Z,62.94
2019-04-06T22:53:08.729Z,62.99
2019-04-06T22:55:38.042Z,63.16
2019-04-06T22:58:07.145Z,63.56
2019-04-06T23:03:41.124Z,63.38
2019-04-06T23:06:18.064Z,63.44
2019-04-06T23:08:47.360Z,63.18
2019-04-06T23:11:16.234Z,63.23
2019-04-06T23:14:22.476Z,63.32
2019-04-06T23:16:50.577Z,63.25
2019-04-06T23:19:19.339Z,63.08
2019-04-06T23:21:48.025Z,63.08
2019-04-06T23:24:16.695Z,63.10
2019-04-06T23:26:45.536Z,63.32
2019-04-06T23:29:14.427Z,63.37
2019-04-06T23:31:43.119Z,63.42
2019-04-06T23:34:11.801Z,63.45
2019-04-06T23:36:40.672Z,63.54
2019-04-06T23:39:09.439Z,63.42
2019-04-06T23:41:38.093Z,63.30
2019-04-06T23:44:07.928Z,63.43
2019-04-06T23:46:36.786Z,63.43
2019-04-06T23:49:05.557Z,63.49
2019-04-06T23:51:34.893Z,63.76
2019-04-06T23:54:04.253Z,63.76
2019-04-06T23:56:33.467Z,63.84
2019-04-06T23:59:03.702Z,63.69
